createdAt,value
2023-04-13T00:00:48.015Z,99353.53
2023-04-13T00:03:17.250Z,99344.44
2023-04-13T00:05:46.208Z,99340.09
2023-04-13T00:08:13.012Z,99327.88
2023-04-13T00:10:41.651Z,99331.41
2023-04-13T00:13:10.392Z,99331.38
2023-04-13T00:15:41.868Z,99317.47
2023-04-13T00:18:09.000Z,99321.44
2023-04-13T00:20:35.685Z,99325.75
2023-04-13T00:23:02.916Z,99330.75
2023-04-13T00:25:30.539Z,99323.53
2023-04-13T00:27:57.220Z,99326.72
2023-04-13T00:30:23.697Z,99333.38
2023-04-13T00:32:50.274Z,99317.06
2023-04-13T00:35:19.885Z,99321.34
2023-04-13T00:37:49.923Z,99325.16
2023-04-13T00:40:16.784Z,99303.50
2023-04-13T00:42:47.801Z,99311.34
2023-04-13T00:45:15.470Z,99311.34
2023-04-13T00:47:46.601Z,99309.25
2023-04-13T00:50:14.155Z,99301.06
2023-04-13T00:52:42.764Z,99298.47
2023-04-13T00:55:09.458Z,99308.19
2023-04-13T00:57:36.696Z,99310.38
2023-04-13T01:00:09.313Z,99319.88
2023-04-13T01:02:37.079Z,99312.84
2023-04-13T01:05:06.167Z,99348.31
2023-04-13T01:07:59.414Z,99348.56
2023-04-13T01:10:54.233Z,99318.16
2023-04-13T01:13:22.627Z,99322.22
2023-04-13T01:15:57.843Z,99332.59
2023-04-13T01:18:25.246Z,99320.78
2023-04-13T01:20:54.861Z,99309.47
2023-04-13T01:24:01.837Z,99327.31
2023-04-13T01:27:07.803Z,99307.63
2023-04-13T01:29:36.344Z,99314.72
2023-04-13T01:32:03.206Z,99313.59
2023-04-13T01:34:30.058Z,99305.75
2023-04-13T01:36:57.143Z,99306.97
2023-04-13T01:39:25.613Z,99290.44
2023-04-13T01:41:52.078Z,99268.03
2023-04-13T01:44:18.631Z,99280.91
2023-04-13T01:46:51.363Z,99280.97
2023-04-13T01:49:21.200Z,99280.16
2023-04-13T01:51:50.396Z,99279.56
2023-04-13T01:54:23.096Z,99285.56
2023-04-13T01:56:50.853Z,99277.25
2023-04-13T01:59:17.749Z,99272.00
2023-04-13T02:01:44.326Z,99269.75
2023-04-13T02:04:11.049Z,99272.38
2023-04-13T02:06:37.776Z,99278.22
2023-04-13T02:09:07.037Z,99263.19
2023-04-13T02:11:37.233Z,99262.75
2023-04-13T02:14:04.855Z,99269.38
2023-04-13T02:16:31.437Z,99269.69
2023-04-13T02:19:01.624Z,99267.75
2023-04-13T02:21:28.285Z,99267.03
2023-04-13T02:23:54.853Z,99256.34
2023-04-13T02:26:21.313Z,99252.84
2023-04-13T02:28:50.041Z,99260.78
2023-04-13T02:31:17.459Z,99256.47
2023-04-13T02:33:44.803Z,99264.75
2023-04-13T02:36:12.047Z,99266.41
2023-04-13T02:38:38.688Z,99272.69
2023-04-13T02:41:06.565Z,99268.00
2023-04-13T02:43:33.392Z,99271.63
2023-04-13T02:46:00.045Z,99261.41
2023-04-13T02:48:26.935Z,99263.19
2023-04-13T02:50:56.435Z,99275.38
2023-04-13T02:53:24.234Z,99272.00
2023-04-13T02:55:50.690Z,99276.31
2023-04-13T02:58:17.249Z,99270.38
2023-04-13T03:00:44.568Z,99283.81
2023-04-13T03:03:11.343Z,99286.16
2023-04-13T03:05:38.849Z,99276.59
2023-04-13T03:08:05.664Z,99294.00
2023-04-13T03:10:32.178Z,99279.78
2023-04-13T03:12:58.929Z,99285.38
2023-04-13T03:15:25.394Z,99286.50
2023-04-13T03:17:52.931Z,99283.00
2023-04-13T03:20:20.760Z,99291.69
2023-04-13T03:22:47.251Z,99290.09
2023-04-13T03:25:13.743Z,99288.84
2023-04-13T03:27:40.509Z,99291.91
2023-04-13T03:30:08.116Z,99280.53
2023-04-13T03:32:34.673Z,99283.66
2023-04-13T03:35:01.322Z,99271.81
2023-04-13T03:37:30.222Z,99273.41
2023-04-13T03:39:57.910Z,99275.69
2023-04-13T03:42:24.347Z,99285.56
2023-04-13T03:44:50.866Z,99274.56
2023-04-13T03:47:17.370Z,99291.38
2023-04-13T03:49:43.839Z,99309.56
2023-04-13T03:52:10.744Z,99301.22
2023-04-13T03:54:37.241Z,99302.00
2023-04-13T03:57:04.616Z,99305.16
2023-04-13T03:59:31.153Z,99307.53
2023-04-13T04:01:58.057Z,99313.03
2023-04-13T04:04:24.769Z,99314.59
2023-04-13T04:06:51.424Z,99330.44
2023-04-13T04:09:17.958Z,99327.47
2023-04-13T04:11:44.693Z,99348.47
2023-04-13T04:14:11.157Z,99338.53
2023-04-13T04:16:37.735Z,99338.16
2023-04-13T04:19:04.294Z,99338.13
2023-04-13T04:21:34.112Z,99340.63
2023-04-13T04:24:06.325Z,99349.34
2023-04-13T04:26:32.908Z,99344.97
2023-04-13T04:29:02.568Z,99355.66
2023-04-13T04:31:36.834Z,99344.56
2023-04-13T04:34:03.927Z,99345.41
2023-04-13T04:36:30.467Z,99356.31
2023-04-13T04:39:02.339Z,99368.53
2023-04-13T04:41:30.974Z,99367.25
2023-04-13T04:43:57.677Z,99362.72
2023-04-13T04:46:27.325Z,99370.72
2023-04-13T04:48:54.578Z,99377.03
2023-04-13T04:51:24.876Z,99372.66
2023-04-13T04:53:52.862Z,99383.34
2023-04-13T04:56:20.899Z,99392.84
2023-04-13T04:58:47.416Z,99406.97
2023-04-13T05:01:14.078Z,99414.00
2023-04-13T05:03:40.621Z,99414.81
2023-04-13T05:06:07.989Z,99403.69
2023-04-13T05:08:34.608Z,99421.91
2023-04-13T05:11:01.055Z,99431.75
2023-04-13T05:13:27.546Z,99412.28
2023-04-13T05:15:54.053Z,99427.66
2023-04-13T05:18:20.593Z,99427.66
2023-04-13T05:20:47.297Z,99434.13
2023-04-13T05:23:13.837Z,99429.31
2023-04-13T05:25:40.527Z,99449.41
2023-04-13T05:28:07.065Z,99443.88
2023-04-13T05:30:34.092Z,99464.56
2023-04-13T05:33:05.519Z,99463.69
2023-04-13T05:35:32.132Z,99477.97
2023-04-13T05:38:01.153Z,99485.84
2023-04-13T05:40:28.922Z,99484.75
2023-04-13T05:42:56.289Z,99502.41
2023-04-13T05:45:22.945Z,99507.94
2023-04-13T05:47:49.427Z,99505.84
2023-04-13T05:50:15.901Z,99512.09
2023-04-13T05:52:42.533Z,99523.59
2023-04-13T05:55:10.099Z,99523.19
2023-04-13T05:57:36.626Z,99544.78
2023-04-13T06:00:03.609Z,99533.66
2023-04-13T06:02:32.170Z,99540.44
2023-04-13T06:04:58.956Z,99553.72
2023-04-13T06:07:26.008Z,99543.06
2023-04-13T06:09:52.480Z,99544.50
2023-04-13T06:12:19.407Z,99541.28
2023-04-13T06:14:45.987Z,99545.97
2023-04-13T06:17:12.478Z,99551.44
2023-04-13T06:19:38.924Z,99545.03
2023-04-13T06:22:05.427Z,99552.47
2023-04-13T06:24:31.920Z,99548.06
2023-04-13T06:26:59.527Z,99556.97
2023-04-13T06:29:26.592Z,99566.00
2023-04-13T06:31:53.079Z,99563.00
2023-04-13T06:34:20.174Z,99566.41
2023-04-13T06:36:46.721Z,99566.06
2023-04-13T06:39:13.714Z,99591.34
2023-04-13T06:41:40.173Z,99592.38
2023-04-13T06:44:06.671Z,99592.84
2023-04-13T06:46:33.519Z,99603.16
2023-04-13T06:49:00.433Z,99601.34
2023-04-13T06:51:27.120Z,99597.38
2023-04-13T06:53:54.580Z,99599.53
2023-04-13T06:56:21.268Z,99597.25
2023-04-13T06:58:47.817Z,99599.00
2023-04-13T07:01:14.435Z,99618.44
2023-04-13T07:03:41.150Z,99618.44
2023-04-13T07:06:08.433Z,99611.88
2023-04-13T07:08:35.447Z,99622.63
2023-04-13T07:11:02.705Z,99632.03
2023-04-13T07:13:29.206Z,99625.03
2023-04-13T07:15:55.706Z,99643.44
2023-04-13T07:18:22.259Z,99660.81
2023-04-13T07:20:48.729Z,99638.78
2023-04-13T07:23:15.251Z,99624.97
2023-04-13T07:25:41.763Z,99626.59
2023-04-13T07:28:08.236Z,99626.59
2023-04-13T07:30:34.759Z,99636.16
2023-04-13T07:33:01.601Z,99650.34
2023-04-13T07:35:28.323Z,99644.56
2023-04-13T07:37:54.802Z,99657.81
2023-04-13T07:40:21.580Z,99647.75
2023-04-13T07:42:50.675Z,99650.50
2023-04-13T07:45:18.014Z,99665.72
2023-04-13T07:47:44.538Z,99649.44
2023-04-13T07:50:11.898Z,99660.78
2023-04-13T07:52:38.375Z,99665.41
2023-04-13T07:55:05.870Z,99659.72
2023-04-13T07:57:32.349Z,99677.69
2023-04-13T07:59:58.883Z,99680.19
2023-04-13T08:02:25.673Z,99675.72
2023-04-13T08:04:52.967Z,99686.09
2023-04-13T08:07:20.928Z,99703.41
2023-04-13T08:09:48.708Z,99691.53
2023-04-13T08:12:15.414Z,99697.81
2023-04-13T08:14:41.880Z,99704.13
2023-04-13T08:17:08.353Z,99711.22
2023-04-13T08:19:35.340Z,99710.38
2023-04-13T08:22:02.016Z,99715.13
2023-04-13T08:24:29.263Z,99728.69
2023-04-13T08:26:58.129Z,99726.28
2023-04-13T08:29:25.746Z,99743.72
2023-04-13T08:31:52.909Z,99724.59
2023-04-13T08:34:19.577Z,99748.44
2023-04-13T08:36:46.351Z,99737.34
2023-04-13T08:39:13.454Z,99746.31
2023-04-13T08:41:44.038Z,99745.00
2023-04-13T08:44:13.465Z,99753.75
2023-04-13T08:46:42.597Z,99748.53
2023-04-13T08:49:11.063Z,99750.56
2023-04-13T08:51:38.553Z,99751.13
2023-04-13T08:54:06.994Z,99769.59
2023-04-13T08:56:45.276Z,99770.81
2023-04-13T08:59:15.485Z,99772.75
2023-04-13T09:01:46.242Z,99778.81
2023-04-13T09:04:18.155Z,99777.19
2023-04-13T09:06:47.851Z,99789.88
2023-04-13T09:09:14.938Z,99784.94
2023-04-13T09:11:43.268Z,99794.19
2023-04-13T09:14:10.461Z,99802.44
2023-04-13T09:16:41.556Z,99814.72
2023-04-13T09:19:08.741Z,99812.81
2023-04-13T09:21:43.155Z,99819.03
2023-04-13T09:24:10.869Z,99815.47
2023-04-13T09:26:45.374Z,99823.84
2023-04-13T09:29:16.759Z,99805.56
2023-04-13T09:31:45.668Z,99825.25
2023-04-13T09:34:13.286Z,99822.91
2023-04-13T09:36:53.444Z,99824.19
2023-04-13T09:39:28.800Z,99838.44
2023-04-13T09:41:56.070Z,99832.34
2023-04-13T09:44:34.549Z,99836.56
2023-04-13T09:47:03.131Z,99829.44
2023-04-13T09:49:40.725Z,99844.97
2023-04-13T09:52:18.228Z,99832.88
2023-04-13T09:54:49.358Z,99839.06
2023-04-13T09:57:40.997Z,99833.41
2023-04-13T10:00:15.757Z,99862.84
2023-04-13T10:02:44.503Z,99836.81
2023-04-13T10:05:11.618Z,99834.44
2023-04-13T10:07:39.975Z,99837.69
2023-04-13T10:10:07.969Z,99838.41
2023-04-13T10:12:38.384Z,99845.09
2023-04-13T10:15:37.096Z,99851.13
2023-04-13T10:18:09.132Z,99843.94
2023-04-13T10:20:36.735Z,99857.06
2023-04-13T10:23:05.119Z,99847.47
2023-04-13T10:25:34.422Z,99855.28
2023-04-13T10:28:02.214Z,99860.59
2023-04-13T10:30:28.868Z,99870.84
2023-04-13T10:33:06.752Z,99866.31
2023-04-13T10:35:43.305Z,99862.97
2023-04-13T10:38:10.773Z,99884.09
2023-04-13T10:40:47.377Z,99883.34
2023-04-13T10:43:28.706Z,99883.78
2023-04-13T10:46:09.552Z,99885.53
2023-04-13T10:48:36.336Z,99884.69
2023-04-13T10:51:03.329Z,99887.88
2023-04-13T10:53:34.133Z,99890.97
2023-04-13T10:56:01.612Z,99887.00
2023-04-13T10:58:32.791Z,99894.34
2023-04-13T11:01:00.158Z,99898.94
2023-04-13T11:03:28.730Z,99888.69
2023-04-13T11:05:58.171Z,99892.28
2023-04-13T11:08:24.929Z,99891.19
2023-04-13T11:10:53.427Z,99886.50
2023-04-13T11:13:20.969Z,99903.56
2023-04-13T11:15:49.315Z,99903.00
2023-04-13T11:18:26.457Z,99902.50
2023-04-13T11:20:53.804Z,99898.00
2023-04-13T11:23:23.910Z,99901.53
2023-04-13T11:25:56.104Z,99899.59
2023-04-13T11:28:23.959Z,99907.25
2023-04-13T11:30:56.878Z,99917.72
2023-04-13T11:33:31.188Z,99930.72
2023-04-13T11:36:00.129Z,99927.50
2023-04-13T11:38:27.891Z,99925.22
2023-04-13T11:43:34.728Z,99944.44
2023-04-13T11:46:01.435Z,99947.41
2023-04-13T11:48:28.389Z,99941.25
2023-04-13T11:50:55.722Z,99940.81
2023-04-13T11:53:22.540Z,99954.16
2023-04-13T11:55:53.161Z,99953.16
2023-04-13T11:58:21.236Z,99970.44
2023-04-13T12:00:48.558Z,99954.84
2023-04-13T12:05:49.800Z,99969.03
2023-04-13T12:08:24.649Z,99962.59
2023-04-13T12:13:47.288Z,99964.94
2023-04-13T12:19:09.797Z,99965.31
2023-04-13T12:21:36.802Z,99978.41
2023-04-13T12:24:05.791Z,99980.06
2023-04-13T12:29:04.958Z,99976.25
2023-04-13T12:31:39.461Z,99979.88
2023-04-13T12:34:07.681Z,99979.66
2023-04-13T12:36:36.265Z,99980.84
2023-04-13T12:39:04.344Z,99981.91
2023-04-13T12:41:31.852Z,99987.72
2023-04-13T12:43:58.852Z,99979.47
2023-04-13T12:46:26.605Z,99997.88
2023-04-13T12:48:53.324Z,100000.34
2023-04-13T12:51:19.838Z,99991.03
2023-04-13T12:53:46.312Z,99992.69
2023-04-13T12:56:12.849Z,100010.53
2023-04-13T12:58:39.392Z,100012.56
2023-04-13T13:01:07.044Z,100006.75
2023-04-13T13:03:34.010Z,100005.63
2023-04-13T13:06:00.856Z,100006.31
2023-04-13T13:08:27.434Z,100021.75
2023-04-13T13:10:53.956Z,100017.69
2023-04-13T13:13:20.525Z,100010.53
2023-04-13T13:15:47.166Z,100027.56
2023-04-13T13:18:14.336Z,100026.41
2023-04-13T13:20:44.297Z,100024.44
2023-04-13T13:23:11.867Z,100031.63
2023-04-13T13:25:41.203Z,100025.97
2023-04-13T13:28:14.979Z,100037.53
2023-04-13T13:30:42.341Z,100036.28
2023-04-13T13:33:08.971Z,100027.69
2023-04-13T13:35:35.872Z,100027.03
2023-04-13T13:38:03.158Z,100024.41
2023-04-13T13:40:29.700Z,100032.16
2023-04-13T13:42:56.652Z,100038.81
2023-04-13T13:45:23.928Z,100028.28
2023-04-13T13:47:53.192Z,100041.97
2023-04-13T13:50:21.697Z,100040.81
2023-04-13T13:53:02.155Z,100046.94
2023-04-13T13:55:29.342Z,100043.28
2023-04-13T13:57:55.847Z,100039.50
2023-04-13T14:00:23.309Z,100043.28
2023-04-13T14:02:49.857Z,100042.00
2023-04-13T14:05:16.463Z,100049.47
2023-04-13T14:07:45.905Z,100048.66
2023-04-13T14:10:13.255Z,100044.63
2023-04-13T14:12:44.714Z,100051.00
2023-04-13T14:15:12.624Z,100038.31
2023-04-13T14:17:40.117Z,100049.03
2023-04-13T14:20:09.063Z,100051.22
2023-04-13T14:22:36.626Z,100058.84
2023-04-13T14:25:03.675Z,100061.94
2023-04-13T14:27:30.184Z,100051.34
2023-04-13T14:29:56.861Z,100054.00
2023-04-13T14:32:23.335Z,100059.44
2023-04-13T14:34:49.932Z,100056.00
2023-04-13T14:37:17.254Z,100055.25
2023-04-13T14:39:43.877Z,100052.00
2023-04-13T14:42:12.223Z,100059.38
2023-04-13T14:44:41.506Z,100062.44
2023-04-13T14:47:09.640Z,100051.91
2023-04-13T14:49:36.635Z,100058.19
2023-04-13T14:52:03.971Z,100058.19
2023-04-13T14:54:30.548Z,100052.28
2023-04-13T14:56:57.032Z,100048.97
2023-04-13T14:59:24.067Z,100058.03
2023-04-13T15:01:51.185Z,100054.13
2023-04-13T15:04:18.284Z,100062.38
2023-04-13T15:06:47.565Z,100075.38
2023-04-13T15:09:15.540Z,100076.91
2023-04-13T15:11:42.687Z,100070.28
2023-04-13T15:14:09.199Z,100073.38
2023-04-13T15:16:35.816Z,100089.50
2023-04-13T15:19:02.768Z,100082.22
2023-04-13T15:21:30.219Z,100078.03
2023-04-13T15:23:56.743Z,100081.16
2023-04-13T15:26:24.003Z,100088.56
2023-04-13T15:28:50.747Z,100090.81
2023-04-13T15:31:17.288Z,100091.88
2023-04-13T15:33:44.094Z,100094.78
2023-04-13T15:36:17.104Z,100095.78
2023-04-13T15:38:43.591Z,100098.47
2023-04-13T15:41:11.212Z,100107.69
2023-04-13T15:43:38.265Z,100095.97
2023-04-13T15:46:04.953Z,100102.06
2023-04-13T15:48:31.807Z,100098.38
2023-04-13T15:50:59.781Z,100101.16
2023-04-13T15:53:27.261Z,100098.66
2023-04-13T15:55:54.024Z,100099.34
2023-04-13T15:58:20.640Z,100098.81
2023-04-13T16:00:47.338Z,100110.31
2023-04-13T16:03:15.100Z,100121.75
2023-04-13T16:05:41.695Z,100110.94
2023-04-13T16:08:08.200Z,100115.53
2023-04-13T16:10:34.700Z,100113.72
2023-04-13T16:13:02.972Z,100116.41
2023-04-13T16:15:29.584Z,100112.38
2023-04-13T16:17:57.042Z,100111.06
2023-04-13T16:20:28.260Z,100116.66
2023-04-13T16:22:59.278Z,100116.19
2023-04-13T16:25:25.861Z,100127.78
2023-04-13T16:27:54.130Z,100132.38
2023-04-13T16:30:21.919Z,100139.31
2023-04-13T16:32:49.640Z,100136.50
2023-04-13T16:35:16.960Z,100144.50
2023-04-13T16:37:43.657Z,100145.38
2023-04-13T16:40:11.632Z,100149.75
2023-04-13T16:42:39.582Z,100156.44
2023-04-13T16:45:07.522Z,100159.91
2023-04-13T16:47:34.179Z,100158.59
2023-04-13T16:50:00.792Z,100159.91
2023-04-13T16:52:27.316Z,100167.69
2023-04-13T16:54:53.889Z,100168.50
2023-04-13T16:57:20.599Z,100166.94
2023-04-13T16:59:47.190Z,100177.41
2023-04-13T17:02:30.260Z,100168.47
2023-04-13T17:04:57.838Z,100172.16
2023-04-13T17:07:26.723Z,100172.72
2023-04-13T17:09:53.239Z,100184.63
2023-04-13T17:12:21.027Z,100177.06
2023-04-13T17:14:49.711Z,100187.75
2023-04-13T17:17:16.392Z,100184.13
2023-04-13T17:19:42.842Z,100187.16
2023-04-13T17:22:09.560Z,100190.81
2023-04-13T17:24:36.645Z,100194.78
2023-04-13T17:27:03.139Z,100192.13
2023-04-13T17:29:29.667Z,100197.81
2023-04-13T17:31:56.577Z,100204.94
2023-04-13T17:34:23.115Z,100207.28
2023-04-13T17:36:49.591Z,100209.84
2023-04-13T17:39:16.063Z,100208.63
2023-04-13T17:41:43.544Z,100212.66
2023-04-13T17:44:10.073Z,100218.72
2023-04-13T17:46:38.427Z,100227.19
2023-04-13T17:49:04.934Z,100228.50
2023-04-13T17:51:31.788Z,100227.84
2023-04-13T17:53:58.301Z,100230.81
2023-04-13T17:56:24.766Z,100235.69
2023-04-13T17:58:51.372Z,100241.78
2023-04-13T18:01:17.882Z,100248.50
2023-04-13T18:03:45.002Z,100245.81
2023-04-13T18:06:11.723Z,100249.88
2023-04-13T18:08:38.275Z,100239.34
2023-04-13T18:11:04.823Z,100247.81
2023-04-13T18:13:31.553Z,100253.47
2023-04-13T18:15:58.292Z,100260.06
2023-04-13T18:18:25.127Z,100264.25
2023-04-13T18:20:52.281Z,100268.81
2023-04-13T18:23:19.499Z,100276.16
2023-04-13T18:25:49.951Z,100280.75
2023-04-13T18:28:17.370Z,100278.56
2023-04-13T18:30:46.894Z,100276.78
2023-04-13T18:33:13.451Z,100289.28
2023-04-13T18:35:44.218Z,100298.25
2023-04-13T18:38:10.848Z,100303.63
2023-04-13T18:40:37.544Z,100303.38
2023-04-13T18:43:04.032Z,100303.56
2023-04-13T18:45:30.566Z,100311.72
2023-04-13T18:47:57.175Z,100310.66
2023-04-13T18:50:23.970Z,100316.78
2023-04-13T18:52:50.780Z,100315.34
2023-04-13T18:55:17.459Z,100313.88
2023-04-13T18:57:43.954Z,100328.22
2023-04-13T19:00:11.245Z,100324.75
2023-04-13T19:02:39.911Z,100333.16
2023-04-13T19:05:06.735Z,100336.06
2023-04-13T19:07:36.858Z,100340.50
2023-04-13T19:10:04.223Z,100349.31
2023-04-13T19:12:31.992Z,100350.91
2023-04-13T19:14:58.945Z,100342.66
2023-04-13T19:17:28.416Z,100346.69
2023-04-13T19:19:56.020Z,100349.94
2023-04-13T19:22:22.805Z,100345.69
2023-04-13T19:24:49.471Z,100346.53
2023-04-13T19:27:16.022Z,100349.72
2023-04-13T19:29:42.471Z,100337.88
2023-04-13T19:32:12.512Z,100351.13
2023-04-13T19:34:39.051Z,100344.44
2023-04-13T19:37:06.620Z,100346.91
2023-04-13T19:39:33.623Z,100358.88
2023-04-13T19:42:00.266Z,100358.63
2023-04-13T19:44:27.047Z,100369.03
2023-04-13T19:46:53.498Z,100362.84
2023-04-13T19:49:19.974Z,100374.47
2023-04-13T19:51:46.635Z,100361.94
2023-04-13T19:54:13.582Z,100369.91
2023-04-13T19:56:40.538Z,100369.94
2023-04-13T19:59:07.110Z,100366.09
2023-04-13T20:01:34.371Z,100365.72
2023-04-13T20:04:04.085Z,100359.84
2023-04-13T20:06:33.087Z,100361.47
2023-04-13T20:09:13.594Z,100360.75
2023-04-13T20:11:41.758Z,100361.59
2023-04-13T20:14:09.782Z,100364.00
2023-04-13T20:16:36.422Z,100363.69
2023-04-13T20:19:03.213Z,100365.66
2023-04-13T20:21:31.075Z,100359.03
2023-04-13T20:23:58.293Z,100363.44
2023-04-13T20:26:28.081Z,100366.25
2023-04-13T20:28:55.814Z,100371.81
2023-04-13T20:31:22.458Z,100361.63
2023-04-13T20:33:49.047Z,100369.94
2023-04-13T20:36:18.399Z,100367.59
2023-04-13T20:38:44.975Z,100379.44
2023-04-13T20:41:13.805Z,100381.81
2023-04-13T20:43:41.272Z,100381.84
2023-04-13T20:46:09.903Z,100383.44
2023-04-13T20:51:08.708Z,100388.19
2023-04-13T20:53:37.710Z,100383.88
2023-04-13T20:56:06.406Z,100400.06
2023-04-13T20:58:33.362Z,100398.13
2023-04-13T21:01:00.302Z,100389.47
2023-04-13T21:03:30.693Z,100394.56
2023-04-13T21:05:58.373Z,100393.41
2023-04-13T21:08:26.566Z,100396.59
2023-04-13T21:10:53.263Z,100398.56
2023-04-13T21:13:19.998Z,100421.41
2023-04-13T21:15:47.012Z,100418.28
2023-04-13T21:18:13.641Z,100422.19
2023-04-13T21:20:43.067Z,100423.41
2023-04-13T21:23:09.711Z,100420.25
2023-04-13T21:25:37.003Z,100419.44
2023-04-13T21:28:03.694Z,100426.56
2023-04-13T21:30:30.390Z,100423.78
2023-04-13T21:32:56.974Z,100422.63
2023-04-13T21:35:23.509Z,100425.38
2023-04-13T21:37:50.024Z,100435.63
2023-04-13T21:40:18.113Z,100421.81
2023-04-13T21:42:45.015Z,100425.38
2023-04-13T21:45:11.746Z,100435.22
2023-04-13T21:47:38.394Z,100434.81
2023-04-13T21:50:05.796Z,100431.31
2023-04-13T21:52:32.429Z,100436.00
2023-04-13T21:55:03.162Z,100435.22
2023-04-13T21:57:29.904Z,100438.72
2023-04-13T21:59:56.387Z,100450.53
2023-04-13T22:02:24.557Z,100442.63
2023-04-13T22:04:51.532Z,100459.59
2023-04-13T22:07:20.456Z,100446.25
2023-04-13T22:09:52.456Z,100444.66
2023-04-13T22:12:18.937Z,100452.97
2023-04-13T22:14:45.549Z,100453.75
2023-04-13T22:17:13.237Z,100464.38
2023-04-13T22:19:41.000Z,100460.06
2023-04-13T22:22:07.528Z,100462.44
2023-04-13T22:24:34.035Z,100462.81
2023-04-13T22:27:03.832Z,100461.25
2023-04-13T22:29:30.861Z,100456.50
2023-04-13T22:32:00.723Z,100466.00
2023-04-13T22:34:28.322Z,100472.69
2023-04-13T22:36:55.551Z,100470.69
2023-04-13T22:39:22.193Z,100463.19
2023-04-13T22:41:48.687Z,100465.16
2023-04-13T22:44:15.281Z,100460.81
2023-04-13T22:46:41.763Z,100457.66
2023-04-13T22:49:08.353Z,100477.34
2023-04-13T22:51:39.434Z,100475.00
2023-04-13T22:54:06.344Z,100475.75
2023-04-13T22:56:33.020Z,100484.38
2023-04-13T22:58:59.693Z,100482.81
2023-04-13T23:01:26.515Z,100485.94
2023-04-13T23:03:53.276Z,100488.28
2023-04-13T23:06:19.926Z,100476.44
2023-04-13T23:08:47.447Z,100484.69
2023-04-13T23:11:13.868Z,100488.63
2023-04-13T23:13:40.405Z,100481.84
2023-04-13T23:16:07.139Z,100485.78
2023-04-13T23:18:33.717Z,100492.03
2023-04-13T23:21:08.654Z,100488.09
2023-04-13T23:23:35.779Z,100490.84
2023-04-13T23:26:02.255Z,100494.38
2023-04-13T23:28:28.745Z,100496.31
2023-04-13T23:31:08.248Z,100493.13
2023-04-13T23:33:35.657Z,100482.47
2023-04-13T23:36:02.230Z,100480.88
2023-04-13T23:38:28.729Z,100485.16
2023-04-13T23:40:55.993Z,100482.78
2023-04-13T23:43:23.001Z,100485.91
2023-04-13T23:45:53.176Z,100476.84
2023-04-13T23:48:21.579Z,100483.09
2023-04-13T23:50:48.938Z,100479.53
2023-04-13T23:53:16.498Z,100487.00
2023-04-13T23:55:43.050Z,100482.25
2023-04-13T23:58:09.536Z,100486.16
